Terminal Aerodrome Forecast
Issued by NWS

Current Version | Previous Version | Text Only | Print | Product List | Glossary On
Versions: 1 2 3 4 5 6 7 8 9 10 11 12 13 14 15 16 17 18 19 20 21 22 23
000
FTUS42 KMFL 201928 AAA
TAFFXE
TAF AMD
KFXE 201928Z 2019/2118 10018KT P6SM VCSH SCT020 BKN035
     FM210000 10013G22KT P6SM FEW025 SCT050
     FM211400 10015G24KT P6SM SCT025 BKN050=

USA.gov is the U.S. government's official web portal to all federal, state and local government web resources and services.